Time;durP1;ratioP1;P1;durP2;ratioP2;P2;SDS_P1;SDS_P2;PMS_P1;PMS_P2;Temp;Humidity;BMP_temperature;BMP_pressure;BME280_temperature;BME280_humidity;BME280_pressure;Samples;Min_cycle;Max_cycle;Signal;HPM_P1;HPM_P2
2021/05/24 14:52:39;;;;;;;61.97;59.33;;;;;;;;;;5090840;27;21053;-70
2021/05/24 14:55:06;;;;;;;76.28;72.80;;;;;;;;;;5090756;28;20258;-71
2021/05/24 14:57:32;;;;;;;78.97;75.28;;;;;;;;;;5090659;28;20172;-71
2021/05/24 14:59:58;;;;;;;76.75;72.82;;;;;;;;;;5090705;28;20174;-71
2021/05/24 15:02:25;;;;;;;84.68;80.63;;;;;;;;;;5090578;28;20172;-71
2021/05/24 15:04:51;;;;;;;90.03;86.10;;;;;;;;;;5090502;28;20191;-71
2021/05/24 15:07:17;;;;;;;94.47;90.38;;;;;;;;;;5090539;28;20175;-71
2021/05/24 15:09:43;;;;;;;106.03;101.15;;;;;;;;;;5090465;28;20164;-71
2021/05/24 15:12:09;;;;;;;117.57;112.38;;;;;;;;;;5090403;28;20246;-70
2021/05/24 15:14:40;;;;;;;119.90;114.57;;;;;;;;;;5090687;28;20247;-71
2021/05/24 15:17:06;;;;;;;106.15;101.45;;;;;;;;;;5090439;28;20164;-71
2021/05/24 15:19:33;;;;;;;116.40;111.25;;;;;;;;;;5090406;28;20172;-71
2021/05/24 15:22:00;;;;;;;126.97;121.25;;;;;;;;;;5090422;28;20172;-70
2021/05/24 15:24:26;;;;;;;112.32;107.35;;;;;;;;;;5090508;28;20168;-71
2021/05/24 15:26:52;;;;;;;117.15;111.95;;;;;;;;;;5089310;28;20260;-71
2021/05/24 15:29:20;;;;;;;137.68;131.38;;;;;;;;;;5090496;28;20219;-71
2021/05/24 15:31:49;;;;;;;114.32;109.25;;;;;;;;;;5090281;28;20198;-71
2021/05/24 15:34:15;;;;;;;138.18;131.93;;;;;;;;;;5090480;28;20195;-71
2021/05/24 15:36:41;;;;;;;118.47;113.18;;;;;;;;;;5089872;28;20237;-71
2021/05/24 15:39:07;;;;;;;126.45;120.78;;;;;;;;;;5089544;28;20171;-72
2021/05/24 15:41:33;;;;;;;122.43;116.90;;;;;;;;;;5090019;28;20164;-72
2021/05/24 15:43:59;;;;;;;116.60;111.35;;;;;;;;;;5088899;28;20258;-72
2021/05/24 15:46:25;;;;;;;113.13;108.03;;;;;;;;;;5090295;28;20721;-72
2021/05/24 15:48:52;;;;;;;119.63;114.32;;;;;;;;;;5089940;28;20172;-72
2021/05/24 15:51:18;;;;;;;131.32;125.43;;;;;;;;;;5089791;28;20281;-72
2021/05/24 15:53:44;;;;;;;133.07;127.07;;;;;;;;;;5089754;28;20634;-72
2021/05/24 15:56:10;;;;;;;127.90;122.20;;;;;;;;;;5088496;28;20502;-72
2021/05/24 15:58:36;;;;;;;125.15;119.50;;;;;;;;;;5089710;28;20242;-72
2021/05/24 16:01:06;;;;;;;130.90;125.05;;;;;;;;;;5089836;28;20171;-71
2021/05/24 16:03:32;;;;;;;134.45;128.40;;;;;;;;;;5078997;28;20168;-72
2021/05/24 16:05:58;;;;;;;128.45;122.70;;;;;;;;;;5076211;28;20200;-71
2021/05/24 16:08:24;;;;;;;112.50;107.53;;;;;;;;;;5075975;28;20196;-72
2021/05/24 16:10:51;;;;;;;105.03;100.43;;;;;;;;;;5074828;28;20302;-71
2021/05/24 16:13:17;;;;;;;119.38;114.07;;;;;;;;;;5076009;28;20156;-72
2021/05/24 16:15:44;;;;;;;113.88;108.82;;;;;;;;;;5076010;28;20168;-72
2021/05/24 16:18:10;;;;;;;112.95;107.97;;;;;;;;;;5076085;28;20598;-72
2021/05/24 16:20:36;;;;;;;113.90;108.82;;;;;;;;;;5076128;28;20164;-72
2021/05/24 16:25:41;;;;;;;112.13;107.10;;;;;;;;;;5076194;28;20204;-72
2021/05/24 16:28:07;;;;;;;125.15;119.55;;;;;;;;;;5075776;28;20196;-72
2021/05/24 16:30:34;;;;;;;125.40;119.60;;;;;;;;;;5075503;28;20196;-72
2021/05/24 16:33:00;;;;;;;122.97;117.43;;;;;;;;;;5075755;28;20187;-72
2021/05/24 16:35:26;;;;;;;122.90;117.40;;;;;;;;;;5075714;28;20621;-72
2021/05/24 16:37:57;;;;;;;127.80;122.10;;;;;;;;;;5075655;28;20165;-72
2021/05/24 16:40:23;;;;;;;128.45;122.43;;;;;;;;;;5075534;28;20559;-72
2021/05/24 16:42:49;;;;;;;121.88;116.43;;;;;;;;;;5075519;28;20596;-72
2021/05/24 16:45:15;;;;;;;117.90;112.68;;;;;;;;;;5075536;28;20196;-72
2021/05/24 16:47:41;;;;;;;124.20;118.65;;;;;;;;;;5074166;28;20260;-72
2021/05/24 16:50:08;;;;;;;124.60;119.05;;;;;;;;;;5075406;28;20168;-72
2021/05/24 16:52:34;;;;;;;120.28;114.93;;;;;;;;;;5075175;28;20212;-72
2021/05/24 16:55:00;;;;;;;124.15;118.65;;;;;;;;;;5075226;28;20168;-72
2021/05/24 16:57:26;;;;;;;119.10;113.80;;;;;;;;;;5075234;28;20632;-72
2021/05/24 16:59:52;;;;;;;117.35;112.15;;;;;;;;;;5075141;28;20172;-72
2021/05/24 17:02:19;;;;;;;114.75;109.65;;;;;;;;;;5075153;28;20172;-72
2021/05/24 17:04:45;;;;;;;116.57;111.43;;;;;;;;;;5075097;28;20242;-72
2021/05/24 17:07:11;;;;;;;120.40;115.07;;;;;;;;;;5073899;28;20175;-72
2021/05/24 17:09:37;;;;;;;133.02;127.07;;;;;;;;;;5075074;28;20172;-72
2021/05/24 17:12:03;;;;;;;118.43;113.18;;;;;;;;;;5074924;28;20222;-72
2021/05/24 17:14:29;;;;;;;120.68;115.28;;;;;;;;;;5073934;28;20180;-72
2021/05/24 17:16:55;;;;;;;137.98;131.77;;;;;;;;;;5074931;28;20175;-72
2021/05/24 17:19:22;;;;;;;134.48;128.45;;;;;;;;;;5074721;28;20271;-72
2021/05/24 17:21:49;;;;;;;163.50;156.10;;;;;;;;;;5074773;28;20186;-72
2021/05/24 17:24:15;;;;;;;199.48;190.48;;;;;;;;;;5074743;28;20169;-72
2021/05/24 17:26:41;;;;;;;243.68;232.70;;;;;;;;;;5073418;28;20176;-72
2021/05/24 17:29:07;;;;;;;240.05;229.18;;;;;;;;;;5074546;28;20222;-72
2021/05/24 17:31:33;;;;;;;242.55;231.60;;;;;;;;;;5074416;28;20199;-72
2021/05/24 17:33:59;;;;;;;274.45;262.00;;;;;;;;;;5074659;28;20172;-72
2021/05/24 17:36:25;;;;;;;250.40;239.13;;;;;;;;;;5073183;28;20188;-72
2021/05/24 17:38:51;;;;;;;274.00;261.58;;;;;;;;;;5074542;28;20180;-72
2021/05/24 17:41:18;;;;;;;299.17;285.48;;;;;;;;;;5074381;28;20203;-72
2021/05/24 17:43:44;;;;;;;299.95;286.17;;;;;;;;;;5072952;28;20530;-72
2021/05/24 17:46:11;;;;;;;308.00;293.70;;;;;;;;;;5073139;28;20168;-72
2021/05/24 17:48:37;;;;;;;294.17;280.75;;;;;;;;;;5074204;28;20487;-72
2021/05/24 17:53:35;;;;;;;241.18;230.27;;;;;;;;;;5074206;28;20626;-73
2021/05/24 17:56:01;;;;;;;217.32;207.50;;;;;;;;;;5074022;28;20598;-72
2021/05/24 17:58:27;;;;;;;196.48;187.57;;;;;;;;;;5074241;28;20191;-72
2021/05/24 18:00:53;;;;;;;179.75;171.60;;;;;;;;;;5073881;28;20192;-72
2021/05/24 18:03:23;;;;;;;143.00;136.55;;;;;;;;;;5073928;28;20164;-72
2021/05/24 18:05:49;;;;;;;133.90;127.90;;;;;;;;;;5073898;28;20256;-72
2021/05/24 18:08:15;;;;;;;126.85;121.20;;;;;;;;;;5073886;28;20632;-72
2021/05/24 18:10:41;;;;;;;127.70;122.00;;;;;;;;;;5073825;28;20259;-72
2021/05/24 18:13:10;;;;;;;127.70;122.03;;;;;;;;;;5074014;28;20172;-72
2021/05/24 18:15:36;;;;;;;122.22;116.78;;;;;;;;;;5073906;28;20270;-72
2021/05/24 18:18:12;;;;;;;113.25;108.13;;;;;;;;;;5072641;28;20592;-72
2021/05/24 18:20:38;;;;;;;132.77;126.85;;;;;;;;;;5074041;28;20191;-72
2021/05/24 18:23:06;;;;;;;140.38;134.13;;;;;;;;;;5073858;28;20167;-72
2021/05/24 18:25:32;;;;;;;129.35;123.57;;;;;;;;;;5073741;28;20203;-72
2021/05/24 18:27:58;;;;;;;132.85;126.93;;;;;;;;;;5073833;28;20164;-72
2021/05/24 18:30:28;;;;;;;133.05;127.13;;;;;;;;;;5073866;28;20164;-72
2021/05/24 18:32:57;;;;;;;129.68;123.93;;;;;;;;;;5073809;28;20187;-72
2021/05/24 18:35:25;;;;;;;125.45;119.88;;;;;;;;;;5073693;28;20195;-72
2021/05/24 18:37:56;;;;;;;125.25;119.70;;;;;;;;;;5073833;28;20211;-72
2021/05/24 18:40:22;;;;;;;121.88;116.50;;;;;;;;;;5073738;28;20525;-72
2021/05/24 18:42:49;;;;;;;129.93;124.10;;;;;;;;;;5073631;28;20170;-72
2021/05/24 18:45:16;;;;;;;144.05;137.50;;;;;;;;;;5073710;28;20226;-72
2021/05/24 18:47:42;;;;;;;141.65;135.27;;;;;;;;;;5073790;28;20178;-72
2021/05/24 18:50:09;;;;;;;135.93;129.82;;;;;;;;;;5072260;28;20230;-72
2021/05/24 18:52:35;;;;;;;129.20;123.45;;;;;;;;;;5073514;28;20665;-72
2021/05/24 18:55:02;;;;;;;143.80;137.32;;;;;;;;;;5073465;28;20171;-72
2021/05/24 18:57:31;;;;;;;138.77;132.48;;;;;;;;;;5073638;28;20172;-72
2021/05/24 18:59:57;;;;;;;129.32;123.53;;;;;;;;;;5073361;28;20167;-72
2021/05/24 19:02:23;;;;;;;139.40;133.15;;;;;;;;;;5073428;28;20196;-72
